sensor_id;sensor_type;location;lat;lon;timestamp;pressure;altitude;pressure_sealevel;temperature;humidity
36304;BME280;22335;49.800;8.596;2023-07-13T00:04:53;100411.75;;;27.76;34.18
36304;BME280;22335;49.800;8.596;2023-07-13T00:11:37;100428.63;;;27.72;34.24
36304;BME280;22335;49.800;8.596;2023-07-13T00:18:21;100431.44;;;27.72;34.65
36304;BME280;22335;49.800;8.596;2023-07-13T00:25:08;100423.41;;;27.71;34.59
36304;BME280;22335;49.800;8.596;2023-07-13T00:31:52;100429.41;;;27.62;34.52
36304;BME280;22335;49.800;8.596;2023-07-13T00:38:37;100390.50;;;27.28;34.52
36304;BME280;22335;49.800;8.596;2023-07-13T00:46:13;100432.25;;;27.55;34.75
36304;BME280;22335;49.800;8.596;2023-07-13T00:53:06;100441.06;;;27.43;35.03
36304;BME280;22335;49.800;8.596;2023-07-13T00:59:54;100430.22;;;27.27;35.25
36304;BME280;22335;49.800;8.596;2023-07-13T01:06:42;100392.81;;;26.90;35.22
36304;BME280;22335;49.800;8.596;2023-07-13T01:13:26;100380.75;;;26.65;35.36
36304;BME280;22335;49.800;8.596;2023-07-13T01:20:11;100439.75;;;26.97;35.15
36304;BME280;22335;49.800;8.596;2023-07-13T01:26:56;100429.25;;;26.73;35.18
36304;BME280;22335;49.800;8.596;2023-07-13T01:33:40;100438.44;;;26.66;35.49
36304;BME280;22335;49.800;8.596;2023-07-13T01:40:24;100439.66;;;26.61;35.65
36304;BME280;22335;49.800;8.596;2023-07-13T01:47:09;100435.19;;;26.50;35.61
36304;BME280;22335;49.800;8.596;2023-07-13T01:53:53;100448.72;;;26.40;36.17
36304;BME280;22335;49.800;8.596;2023-07-13T02:00:38;100455.47;;;26.32;36.06
36304;BME280;22335;49.800;8.596;2023-07-13T02:07:23;100403.16;;;25.88;36.32
36304;BME280;22335;49.800;8.596;2023-07-13T02:14:07;100462.97;;;26.10;36.27
36304;BME280;22335;49.800;8.596;2023-07-13T02:20:50;100472.53;;;26.02;36.40
36304;BME280;22335;49.800;8.596;2023-07-13T02:27:35;100398.41;;;25.41;36.79
36304;BME280;22335;49.800;8.596;2023-07-13T02:34:19;100488.78;;;25.82;36.67
36304;BME280;22335;49.800;8.596;2023-07-13T02:41:03;100509.25;;;25.86;36.76
36304;BME280;22335;49.800;8.596;2023-07-13T03:02:52;100479.06;;;25.72;36.63
36304;BME280;22335;49.800;8.596;2023-07-13T03:09:39;100486.63;;;25.65;36.98
36304;BME280;22335;49.800;8.596;2023-07-13T03:16:24;100493.25;;;25.46;37.21
36304;BME280;22335;49.800;8.596;2023-07-13T03:23:09;100483.97;;;25.38;37.86
36304;BME280;22335;49.800;8.596;2023-07-13T03:29:53;100501.75;;;25.16;38.01
36304;BME280;22335;49.800;8.596;2023-07-13T03:36:38;100514.69;;;24.97;38.16
36304;BME280;22335;49.800;8.596;2023-07-13T03:43:26;100489.28;;;24.79;38.64
36304;BME280;22335;49.800;8.596;2023-07-13T03:50:10;100467.03;;;24.56;38.32
36304;BME280;22335;49.800;8.596;2023-07-13T03:56:55;100448.09;;;24.46;38.54
36304;BME280;22335;49.800;8.596;2023-07-13T04:03:40;100420.66;;;24.25;38.61
36304;BME280;22335;49.800;8.596;2023-07-13T04:10:24;100511.47;;;24.65;38.99
36304;BME280;22335;49.800;8.596;2023-07-13T04:17:08;100510.63;;;24.61;38.82
36304;BME280;22335;49.800;8.596;2023-07-13T04:23:55;100518.44;;;24.48;39.52
36304;BME280;22335;49.800;8.596;2023-07-13T04:30:39;100544.50;;;24.29;39.53
36304;BME280;22335;49.800;8.596;2023-07-13T04:37:23;100554.19;;;24.12;40.32
36304;BME280;22335;49.800;8.596;2023-07-13T04:44:08;100531.84;;;24.12;40.08
36304;BME280;22335;49.800;8.596;2023-07-13T04:50:55;100543.75;;;24.09;40.54
36304;BME280;22335;49.800;8.596;2023-07-13T04:57:40;100558.63;;;24.13;40.58
36304;BME280;22335;49.800;8.596;2023-07-13T05:04:25;100553.22;;;24.01;41.18
36304;BME280;22335;49.800;8.596;2023-07-13T05:11:09;100483.56;;;23.66;40.93
36304;BME280;22335;49.800;8.596;2023-07-13T05:17:52;100517.44;;;24.10;41.21
36304;BME280;22335;49.800;8.596;2023-07-13T05:24:41;100514.72;;;24.14;40.33
36304;BME280;22335;49.800;8.596;2023-07-13T05:31:25;100578.00;;;24.52;40.26
36304;BME280;22335;49.800;8.596;2023-07-13T05:38:09;100525.69;;;24.26;39.96
36304;BME280;22335;49.800;8.596;2023-07-13T05:44:54;100561.50;;;24.70;39.69
36304;BME280;22335;49.800;8.596;2023-07-13T05:51:38;100574.25;;;24.98;39.40
36304;BME280;22335;49.800;8.596;2023-07-13T05:58:22;100573.53;;;25.35;39.42
36304;BME280;22335;49.800;8.596;2023-07-13T06:05:08;100572.22;;;25.62;38.64
36304;BME280;22335;49.800;8.596;2023-07-13T06:11:52;100575.16;;;25.76;38.36
36304;BME280;22335;49.800;8.596;2023-07-13T06:18:37;100580.28;;;25.67;38.41
36304;BME280;22335;49.800;8.596;2023-07-13T06:25:23;100586.00;;;25.78;38.74
36304;BME280;22335;49.800;8.596;2023-07-13T06:32:08;100595.06;;;26.02;37.46
36304;BME280;22335;49.800;8.596;2023-07-13T06:38:51;100579.81;;;25.99;37.48
36304;BME280;22335;49.800;8.596;2023-07-13T06:45:41;100595.34;;;26.37;36.41
36304;BME280;22335;49.800;8.596;2023-07-13T06:52:27;100613.72;;;26.31;35.75
36304;BME280;22335;49.800;8.596;2023-07-13T06:59:11;100618.59;;;26.41;35.99
36304;BME280;22335;49.800;8.596;2023-07-13T07:06:01;100613.91;;;26.49;35.16
36304;BME280;22335;49.800;8.596;2023-07-13T07:12:46;100601.44;;;26.47;35.22
36304;BME280;22335;49.800;8.596;2023-07-13T07:19:30;100622.47;;;26.71;34.74
36304;BME280;22335;49.800;8.596;2023-07-13T07:26:15;100615.59;;;26.61;34.36
36304;BME280;22335;49.800;8.596;2023-07-13T07:32:59;100628.06;;;26.67;34.64
36304;BME280;22335;49.800;8.596;2023-07-13T07:39:44;100633.66;;;26.67;34.95
36304;BME280;22335;49.800;8.596;2023-07-13T07:46:49;100627.63;;;26.61;35.46
36304;BME280;22335;49.800;8.596;2023-07-13T07:53:33;100631.66;;;26.67;35.20
36304;BME280;22335;49.800;8.596;2023-07-13T08:00:19;100590.66;;;26.49;35.28
36304;BME280;22335;49.800;8.596;2023-07-13T08:07:07;100631.84;;;26.96;35.12
36304;BME280;22335;49.800;8.596;2023-07-13T08:13:51;100619.81;;;26.96;35.28
36304;BME280;22335;49.800;8.596;2023-07-13T08:20:36;100614.25;;;27.06;34.85
36304;BME280;22335;49.800;8.596;2023-07-13T08:27:22;100619.16;;;27.24;34.54
36304;BME280;22335;49.800;8.596;2023-07-13T08:34:07;100623.66;;;27.46;34.70
36304;BME280;22335;49.800;8.596;2023-07-13T08:40:53;100610.47;;;27.68;34.61
36304;BME280;22335;49.800;8.596;2023-07-13T08:47:41;100617.78;;;28.05;34.09
36304;BME280;22335;49.800;8.596;2023-07-13T08:54:32;100615.41;;;28.43;33.48
36304;BME280;22335;49.800;8.596;2023-07-13T09:01:25;100608.97;;;28.75;32.54
36304;BME280;22335;49.800;8.596;2023-07-13T09:08:30;100608.97;;;28.64;32.50
36304;BME280;22335;49.800;8.596;2023-07-13T09:15:24;100600.06;;;28.87;33.10
36304;BME280;22335;49.800;8.596;2023-07-13T09:22:15;100589.59;;;28.91;32.10
36304;BME280;22335;49.800;8.596;2023-07-13T09:29:11;100608.13;;;28.70;31.58
36304;BME280;22335;49.800;8.596;2023-07-13T09:35:59;100619.41;;;28.67;31.33
36304;BME280;22335;49.800;8.596;2023-07-13T09:42:43;100608.56;;;28.72;30.57
36304;BME280;22335;49.800;8.596;2023-07-13T09:49:34;100600.94;;;28.66;30.11
36304;BME280;22335;49.800;8.596;2023-07-13T09:56:20;100602.94;;;28.55;30.32
36304;BME280;22335;49.800;8.596;2023-07-13T10:03:09;100602.53;;;28.60;30.83
36304;BME280;22335;49.800;8.596;2023-07-13T10:10:01;100604.16;;;28.68;30.15
36304;BME280;22335;49.800;8.596;2023-07-13T10:16:46;100601.72;;;28.52;29.75
36304;BME280;22335;49.800;8.596;2023-07-13T10:23:31;100597.72;;;28.57;29.68
36304;BME280;22335;49.800;8.596;2023-07-13T10:30:19;100603.34;;;28.39;30.31
36304;BME280;22335;49.800;8.596;2023-07-13T10:37:15;100599.34;;;28.47;30.03
36304;BME280;22335;49.800;8.596;2023-07-13T10:44:03;100564.34;;;28.34;29.80
36304;BME280;22335;49.800;8.596;2023-07-13T10:50:51;100589.66;;;28.69;29.68
36304;BME280;22335;49.800;8.596;2023-07-13T10:57:41;100583.56;;;29.03;29.29
36304;BME280;22335;49.800;8.596;2023-07-13T11:04:27;100578.72;;;29.00;29.26
36304;BME280;22335;49.800;8.596;2023-07-13T11:11:36;100588.06;;;28.68;29.34
36304;BME280;22335;49.800;8.596;2023-07-13T11:18:24;100589.66;;;28.55;29.43
36304;BME280;22335;49.800;8.596;2023-07-13T11:25:26;100588.91;;;28.47;29.80
36304;BME280;22335;49.800;8.596;2023-07-13T11:32:24;100580.84;;;28.57;29.43
36304;BME280;22335;49.800;8.596;2023-07-13T11:39:18;100582.44;;;28.54;29.86
36304;BME280;22335;49.800;8.596;2023-07-13T11:46:16;100574.34;;;28.81;29.99
36304;BME280;22335;49.800;8.596;2023-07-13T11:53:04;100560.50;;;29.26;29.00
36304;BME280;22335;49.800;8.596;2023-07-13T11:59:47;100582.56;;;29.38;28.25
36304;BME280;22335;49.800;8.596;2023-07-13T12:06:35;100576.53;;;29.44;28.09
36304;BME280;22335;49.800;8.596;2023-07-13T12:13:23;100582.91;;;29.51;27.93
36304;BME280;22335;49.800;8.596;2023-07-13T12:20:11;100578.84;;;29.59;28.51
36304;BME280;22335;49.800;8.596;2023-07-13T12:27:04;100587.63;;;29.76;27.56
36304;BME280;22335;49.800;8.596;2023-07-13T12:33:55;100576.97;;;29.98;28.31
36304;BME280;22335;49.800;8.596;2023-07-13T12:40:40;100568.84;;;30.10;27.53
36304;BME280;22335;49.800;8.596;2023-07-13T12:47:24;100589.34;;;30.15;27.91
36304;BME280;22335;49.800;8.596;2023-07-13T12:54:17;100593.84;;;30.08;28.13
36304;BME280;22335;49.800;8.596;2023-07-13T13:01:02;100576.69;;;29.85;27.54
36304;BME280;22335;49.800;8.596;2023-07-13T13:07:46;100617.47;;;29.70;27.40
36304;BME280;22335;49.800;8.596;2023-07-13T13:14:32;100607.13;;;29.38;27.80
36304;BME280;22335;49.800;8.596;2023-07-13T13:21:16;100613.63;;;29.31;27.65
36304;BME280;22335;49.800;8.596;2023-07-13T13:28:02;100623.22;;;29.41;27.59
36304;BME280;22335;49.800;8.596;2023-07-13T13:34:47;100621.22;;;29.38;27.80
36304;BME280;22335;49.800;8.596;2023-07-13T13:41:32;100626.44;;;29.43;27.63
36304;BME280;22335;49.800;8.596;2023-07-13T13:48:18;100617.28;;;29.21;27.96
36304;BME280;22335;49.800;8.596;2023-07-13T13:55:11;100622.16;;;29.10;28.19
36304;BME280;22335;49.800;8.596;2023-07-13T14:01:56;100628.59;;;29.10;28.37
36304;BME280;22335;49.800;8.596;2023-07-13T14:08:42;100581.19;;;28.73;27.91
36304;BME280;22335;49.800;8.596;2023-07-13T14:15:28;100633.84;;;29.01;28.03
36304;BME280;22335;49.800;8.596;2023-07-13T14:22:13;100622.19;;;28.88;27.47
36304;BME280;22335;49.800;8.596;2023-07-13T14:28:57;100639.06;;;28.92;28.28
36304;BME280;22335;49.800;8.596;2023-07-13T14:35:42;100633.81;;;28.98;27.69
36304;BME280;22335;49.800;8.596;2023-07-13T14:42:26;100635.06;;;28.93;28.12
36304;BME280;22335;49.800;8.596;2023-07-13T14:49:14;100616.91;;;29.12;27.94
36304;BME280;22335;49.800;8.596;2023-07-13T14:56:09;100608.06;;;29.10;27.51
36304;BME280;22335;49.800;8.596;2023-07-13T15:02:55;100626.94;;;29.27;27.43
36304;BME280;22335;49.800;8.596;2023-07-13T15:09:41;100612.88;;;29.13;27.53
36304;BME280;22335;49.800;8.596;2023-07-13T15:16:26;100561.41;;;28.98;28.07
36304;BME280;22335;49.800;8.596;2023-07-13T15:23:10;100620.84;;;29.39;27.67
36304;BME280;22335;49.800;8.596;2023-07-13T15:29:54;100584.69;;;29.20;27.16
36304;BME280;22335;49.800;8.596;2023-07-13T15:36:39;100611.19;;;29.37;27.41
36304;BME280;22335;49.800;8.596;2023-07-13T15:43:22;100612.06;;;29.16;27.40
36304;BME280;22335;49.800;8.596;2023-07-13T15:50:14;100564.72;;;28.75;27.37
36304;BME280;22335;49.800;8.596;2023-07-13T15:57:01;100616.97;;;28.87;27.61
36304;BME280;22335;49.800;8.596;2023-07-13T16:03:45;100574.41;;;28.56;27.86
36304;BME280;22335;49.800;8.596;2023-07-13T16:10:32;100606.47;;;28.98;27.82
36304;BME280;22335;49.800;8.596;2023-07-13T16:17:18;100607.28;;;29.06;27.82
36304;BME280;22335;49.800;8.596;2023-07-13T16:24:03;100582.75;;;28.99;27.54
36304;BME280;22335;49.800;8.596;2023-07-13T16:30:47;100588.38;;;29.06;27.18
36304;BME280;22335;49.800;8.596;2023-07-13T16:37:33;100591.16;;;29.10;26.96
36304;BME280;22335;49.800;8.596;2023-07-13T16:44:24;100586.78;;;29.05;27.42
36304;BME280;22335;49.800;8.596;2023-07-13T16:51:10;100619.75;;;29.12;27.70
36304;BME280;22335;49.800;8.596;2023-07-13T16:57:56;100599.16;;;29.26;27.87
36304;BME280;22335;49.800;8.596;2023-07-13T17:04:42;100561.41;;;28.98;27.36
36304;BME280;22335;49.800;8.596;2023-07-13T17:11:27;100589.91;;;29.22;26.86
36304;BME280;22335;49.800;8.596;2023-07-13T17:18:15;100557.03;;;28.90;26.93
36304;BME280;22335;49.800;8.596;2023-07-13T17:24:58;100600.03;;;29.08;27.61
36304;BME280;22335;49.800;8.596;2023-07-13T17:31:42;100620.53;;;29.16;27.55
36304;BME280;22335;49.800;8.596;2023-07-13T17:38:31;100609.69;;;29.04;27.39
36304;BME280;22335;49.800;8.596;2023-07-13T17:45:22;100547.44;;;28.66;27.71
36304;BME280;22335;49.800;8.596;2023-07-13T17:52:08;100607.25;;;28.99;27.22
36304;BME280;22335;49.800;8.596;2023-07-13T17:58:53;100602.84;;;29.01;27.36
36304;BME280;22335;49.800;8.596;2023-07-13T18:05:37;100615.31;;;29.00;27.26
36304;BME280;22335;49.800;8.596;2023-07-13T18:12:21;100618.94;;;29.01;27.04
36304;BME280;22335;49.800;8.596;2023-07-13T18:19:18;100610.91;;;28.92;27.19
36304;BME280;22335;49.800;8.596;2023-07-13T18:26:10;100534.22;;;28.31;27.40
36304;BME280;22335;49.800;8.596;2023-07-13T18:32:54;100630.22;;;28.83;27.30
36304;BME280;22335;49.800;8.596;2023-07-13T18:39:40;100621.81;;;28.72;27.34
36304;BME280;22335;49.800;8.596;2023-07-13T18:46:26;100613.38;;;28.61;27.09
36304;BME280;22335;49.800;8.596;2023-07-13T18:53:15;100527.81;;;28.01;28.09
36304;BME280;22335;49.800;8.596;2023-07-13T19:00:00;100623.03;;;28.60;28.03
36304;BME280;22335;49.800;8.596;2023-07-13T19:06:46;100637.53;;;28.62;28.11
36304;BME280;22335;49.800;8.596;2023-07-13T19:13:31;100594.53;;;28.44;28.03
36304;BME280;22335;49.800;8.596;2023-07-13T19:20:19;100623.84;;;28.64;28.84
36304;BME280;22335;49.800;8.596;2023-07-13T19:27:09;100637.53;;;28.62;29.00
36304;BME280;22335;49.800;8.596;2023-07-13T19:33:53;100652.78;;;28.61;29.30
36304;BME280;22335;49.800;8.596;2023-07-13T19:40:38;100658.03;;;28.59;29.28
36304;BME280;22335;49.800;8.596;2023-07-13T19:47:22;100666.47;;;28.48;29.31
36304;BME280;22335;49.800;8.596;2023-07-13T19:54:14;100674.09;;;28.48;29.17
36304;BME280;22335;49.800;8.596;2023-07-13T20:01:02;100686.56;;;28.47;29.44
36304;BME280;22335;49.800;8.596;2023-07-13T20:07:49;100644.72;;;28.13;29.91
36304;BME280;22335;49.800;8.596;2023-07-13T20:14:38;100712.72;;;28.40;29.55
36304;BME280;22335;49.800;8.596;2023-07-13T20:21:26;100696.19;;;28.28;30.23
36304;BME280;22335;49.800;8.596;2023-07-13T20:28:10;100676.84;;;27.98;30.17
36304;BME280;22335;49.800;8.596;2023-07-13T20:34:54;100663.09;;;27.75;30.64
36304;BME280;22335;49.800;8.596;2023-07-13T20:41:39;100672.38;;;27.83;31.01
36304;BME280;22335;49.800;8.596;2023-07-13T20:48:29;100686.81;;;27.81;30.74
36304;BME280;22335;49.800;8.596;2023-07-13T20:55:19;100643.34;;;27.50;30.81
36304;BME280;22335;49.800;8.596;2023-07-13T21:02:23;100513.38;;;26.58;30.94
36304;BME280;22335;49.800;8.596;2023-07-13T21:09:16;100722.63;;;27.88;31.04
36304;BME280;22335;49.800;8.596;2023-07-13T21:16:09;100721.34;;;27.78;31.28
36304;BME280;22335;49.800;8.596;2023-07-13T21:22:59;100723.34;;;27.77;31.17
36304;BME280;22335;49.800;8.596;2023-07-13T21:29:43;100735.75;;;27.69;31.39
36304;BME280;22335;49.800;8.596;2023-07-13T21:36:29;100677.63;;;27.07;31.53
36304;BME280;22335;49.800;8.596;2023-07-13T21:43:14;100739.28;;;27.52;31.68
36304;BME280;22335;49.800;8.596;2023-07-13T21:49:59;100750.88;;;27.47;31.90
36304;BME280;22335;49.800;8.596;2023-07-13T21:56:43;100748.84;;;27.36;32.20
36304;BME280;22335;49.800;8.596;2023-07-13T22:03:30;100691.56;;;26.93;32.28
36304;BME280;22335;49.800;8.596;2023-07-13T22:10:18;100753.16;;;27.20;32.47
36304;BME280;22335;49.800;8.596;2023-07-13T22:17:02;100753.44;;;27.07;32.52
36304;BME280;22335;49.800;8.596;2023-07-13T22:23:49;100657.50;;;26.43;32.41
36304;BME280;22335;49.800;8.596;2023-07-13T22:30:33;100739.88;;;26.68;32.96
36304;BME280;22335;49.800;8.596;2023-07-13T22:37:17;100736.63;;;26.63;33.18
36304;BME280;22335;49.800;8.596;2023-07-13T22:44:02;100738.19;;;26.57;33.28
36304;BME280;22335;49.800;8.596;2023-07-13T22:50:48;100764.59;;;26.52;33.43
36304;BME280;22335;49.800;8.596;2023-07-13T22:57:32;100757.75;;;26.50;33.38
36304;BME280;22335;49.800;8.596;2023-07-13T23:04:23;100751.91;;;26.28;33.91
36304;BME280;22335;49.800;8.596;2023-07-13T23:11:09;100749.03;;;26.21;33.90
36304;BME280;22335;49.800;8.596;2023-07-13T23:17:54;100648.81;;;25.40;34.09
36304;BME280;22335;49.800;8.596;2023-07-13T23:24:39;100738.34;;;25.96;34.62
36304;BME280;22335;49.800;8.596;2023-07-13T23:31:26;100743.53;;;25.94;34.58
36304;BME280;22335;49.800;8.596;2023-07-13T23:38:12;100707.97;;;25.68;34.72
36304;BME280;22335;49.800;8.596;2023-07-13T23:44:57;100740.59;;;25.84;34.46
36304;BME280;22335;49.800;8.596;2023-07-13T23:51:41;100746.06;;;25.76;35.35
36304;BME280;22335;49.800;8.596;2023-07-13T23:58:24;100667.13;;;25.34;35.12
